Time;durP1;ratioP1;P1;durP2;ratioP2;P2;SDS_P1;SDS_P2;PMS_P1;PMS_P2;Temp;Humidity;BMP_temperature;BMP_pressure;BME280_temperature;BME280_humidity;BME280_pressure;Samples;Min_cycle;Max_cycle;Signal;HPM_P1;HPM_P2
2021/11/09 00:02:19;;;;;;;29.33;9.10;;;;;;;;;;5095535;28;20563;-69
2021/11/09 00:04:51;;;;;;;15.95;9.52;;;;;;;;;;5095511;28;20469;-69
2021/11/09 00:07:27;;;;;;;22.83;10.25;;;;;;;;;;5096016;28;20195;-69
2021/11/09 00:09:59;;;;;;;23.45;9.45;;;;;;;;;;5095650;28;20197;-69
2021/11/09 00:12:27;;;;;;;22.80;9.70;;;;;;;;;;5095049;28;20189;-69
2021/11/09 00:14:55;;;;;;;20.90;9.90;;;;;;;;;;5095475;28;20439;-69
2021/11/09 00:17:22;;;;;;;18.93;10.50;;;;;;;;;;5094848;28;20979;-69
2021/11/09 00:19:50;;;;;;;25.30;9.98;;;;;;;;;;5094845;28;20443;-69
2021/11/09 00:22:17;;;;;;;29.52;10.15;;;;;;;;;;5094718;28;20203;-70
2021/11/09 00:24:46;;;;;;;20.60;9.50;;;;;;;;;;5095030;28;20313;-69
2021/11/09 00:27:13;;;;;;;18.80;10.10;;;;;;;;;;5095361;28;20530;-69
2021/11/09 00:29:40;;;;;;;26.38;10.90;;;;;;;;;;5095223;28;20299;-70
2021/11/09 00:32:08;;;;;;;18.90;9.27;;;;;;;;;;5094945;28;20275;-70
2021/11/09 00:34:36;;;;;;;25.15;10.40;;;;;;;;;;5094549;28;20443;-69
2021/11/09 00:37:04;;;;;;;25.80;12.77;;;;;;;;;;5094784;28;20222;-69
2021/11/09 00:39:31;;;;;;;22.58;10.10;;;;;;;;;;5094492;28;20726;-69
2021/11/09 00:42:00;;;;;;;16.60;9.75;;;;;;;;;;5094764;28;20192;-70
2021/11/09 00:44:27;;;;;;;24.77;10.20;;;;;;;;;;5094685;28;20280;-70
2021/11/09 00:46:55;;;;;;;25.02;11.25;;;;;;;;;;5094662;28;20459;-70
2021/11/09 00:49:22;;;;;;;23.20;10.00;;;;;;;;;;5094365;28;20665;-70
2021/11/09 00:51:50;;;;;;;24.67;9.97;;;;;;;;;;5094855;28;20437;-69
2021/11/09 00:54:17;;;;;;;27.02;10.55;;;;;;;;;;5094584;28;20475;-69
2021/11/09 00:56:45;;;;;;;20.57;10.40;;;;;;;;;;5094390;28;20196;-70
2021/11/09 00:59:13;;;;;;;19.60;9.95;;;;;;;;;;5093894;28;20486;-70
2021/11/09 01:01:41;;;;;;;28.65;11.32;;;;;;;;;;5094567;28;20554;-70
2021/11/09 01:04:08;;;;;;;27.03;9.67;;;;;;;;;;5094597;28;20197;-70
2021/11/09 01:06:36;;;;;;;19.40;10.97;;;;;;;;;;5094242;28;20450;-70
2021/11/09 01:09:04;;;;;;;19.53;9.77;;;;;;;;;;5094253;28;20794;-70
2021/11/09 01:11:31;;;;;;;34.20;10.05;;;;;;;;;;5094156;28;20442;-70
2021/11/09 01:14:00;;;;;;;24.15;9.73;;;;;;;;;;5094159;28;20198;-70
2021/11/09 01:16:28;;;;;;;21.63;10.47;;;;;;;;;;5094081;28;20200;-70
2021/11/09 01:18:57;;;;;;;21.17;9.10;;;;;;;;;;5094462;28;20488;-70
2021/11/09 01:21:25;;;;;;;16.60;9.30;;;;;;;;;;5094097;28;20447;-70
2021/11/09 01:23:54;;;;;;;27.50;10.30;;;;;;;;;;5094025;28;20445;-70
2021/11/09 01:26:22;;;;;;;28.00;9.60;;;;;;;;;;5093980;28;20208;-70
2021/11/09 01:28:51;;;;;;;30.83;11.27;;;;;;;;;;5093928;28;20247;-70
2021/11/09 01:31:18;;;;;;;25.05;10.60;;;;;;;;;;5093569;28;20892;-70
2021/11/09 01:33:47;;;;;;;19.83;9.93;;;;;;;;;;5093506;28;20208;-71
2021/11/09 01:36:14;;;;;;;21.17;9.60;;;;;;;;;;5093717;28;20439;-70
2021/11/09 01:38:41;;;;;;;19.02;9.50;;;;;;;;;;5093641;28;20245;-71
2021/11/09 01:41:09;;;;;;;28.38;10.30;;;;;;;;;;5093693;28;20196;-70
2021/11/09 01:43:36;;;;;;;23.25;10.50;;;;;;;;;;5093772;28;20554;-71
2021/11/09 01:46:04;;;;;;;32.53;11.27;;;;;;;;;;5093719;28;20197;-70
2021/11/09 01:48:31;;;;;;;24.63;10.80;;;;;;;;;;5094287;28;20558;-71
2021/11/09 01:51:02;;;;;;;18.33;9.73;;;;;;;;;;5093567;28;20443;-70
2021/11/09 01:53:29;;;;;;;27.53;12.43;;;;;;;;;;5094006;28;20228;-70
2021/11/09 01:55:58;;;;;;;21.45;9.93;;;;;;;;;;5094105;28;20445;-71
2021/11/09 01:58:25;;;;;;;19.92;11.75;;;;;;;;;;5093507;28;20225;-70
2021/11/09 02:00:55;;;;;;;26.70;11.37;;;;;;;;;;5093539;28;20235;-70
2021/11/09 02:03:22;;;;;;;27.83;11.93;;;;;;;;;;5093511;28;20519;-70
2021/11/09 02:05:50;;;;;;;28.67;10.48;;;;;;;;;;5093614;28;20189;-70
2021/11/09 02:08:19;;;;;;;30.85;11.07;;;;;;;;;;5094242;28;20200;-70
2021/11/09 02:10:47;;;;;;;25.10;10.95;;;;;;;;;;5093728;28;20245;-71
2021/11/09 02:13:17;;;;;;;24.00;10.73;;;;;;;;;;5097597;28;20200;-70
2021/11/09 02:15:44;;;;;;;43.45;11.57;;;;;;;;;;5097235;28;20646;-70
2021/11/09 02:18:13;;;;;;;22.55;11.05;;;;;;;;;;5097477;28;20222;-70
2021/11/09 02:20:40;;;;;;;23.25;10.63;;;;;;;;;;5097416;28;20599;-70
2021/11/09 02:23:09;;;;;;;26.45;11.98;;;;;;;;;;5097462;28;20287;-70
2021/11/09 02:25:36;;;;;;;21.40;11.20;;;;;;;;;;5097428;28;20627;-70
2021/11/09 02:28:04;;;;;;;24.93;12.73;;;;;;;;;;5097310;28;20267;-70
2021/11/09 02:30:32;;;;;;;22.02;10.85;;;;;;;;;;5097734;28;20446;-70
2021/11/09 02:32:59;;;;;;;27.77;11.27;;;;;;;;;;5096915;28;20677;-70
2021/11/09 02:35:27;;;;;;;24.52;12.50;;;;;;;;;;5097175;28;20284;-70
2021/11/09 02:37:55;;;;;;;24.33;11.00;;;;;;;;;;5097044;28;20311;-70
2021/11/09 02:40:25;;;;;;;22.45;11.88;;;;;;;;;;5097340;28;20728;-70
2021/11/09 02:42:55;;;;;;;28.35;11.98;;;;;;;;;;5096863;28;20203;-70
2021/11/09 02:45:30;;;;;;;40.58;14.98;;;;;;;;;;5096883;28;20200;-70
2021/11/09 02:48:00;;;;;;;24.30;11.95;;;;;;;;;;5098020;28;20242;-70
2021/11/09 02:50:31;;;;;;;22.25;13.23;;;;;;;;;;5097486;28;20195;-70
2021/11/09 02:53:02;;;;;;;27.00;12.43;;;;;;;;;;5097139;28;20253;-70
2021/11/09 02:55:34;;;;;;;17.55;11.32;;;;;;;;;;5096794;28;20182;-70
2021/11/09 02:58:10;;;;;;;28.23;13.15;;;;;;;;;;5096662;28;20247;-70
2021/11/09 03:00:44;;;;;;;25.63;15.65;;;;;;;;;;5096860;28;20185;-70
2021/11/09 03:03:15;;;;;;;31.27;14.07;;;;;;;;;;5097383;28;20237;-70
2021/11/09 03:05:47;;;;;;;23.25;12.45;;;;;;;;;;5097467;28;20185;-70
2021/11/09 03:08:23;;;;;;;33.33;12.00;;;;;;;;;;5096304;28;20674;-70
2021/11/09 03:10:53;;;;;;;27.55;11.65;;;;;;;;;;5096667;28;20224;-70
2021/11/09 03:13:21;;;;;;;24.70;11.55;;;;;;;;;;5096328;28;20196;-70
2021/11/09 03:15:49;;;;;;;31.90;12.40;;;;;;;;;;5096606;28;20236;-70
2021/11/09 03:18:18;;;;;;;22.45;10.77;;;;;;;;;;5096155;28;20314;-70
2021/11/09 03:20:52;;;;;;;25.55;12.32;;;;;;;;;;5096217;28;20205;-70
2021/11/09 03:40:04;;;;;;;32.78;12.65;;;;;;;;;;5095915;28;20186;-70
2021/11/09 03:45:21;;;;;;;22.33;11.68;;;;;;;;;;5095689;28;20644;-70
2021/11/09 03:47:50;;;;;;;28.13;12.30;;;;;;;;;;5095843;28;20199;-70
2021/11/09 03:50:19;;;;;;;30.63;12.85;;;;;;;;;;5095442;28;20661;-70
2021/11/09 03:52:49;;;;;;;39.03;12.50;;;;;;;;;;5095454;28;20319;-70
2021/11/09 03:55:24;;;;;;;29.40;13.27;;;;;;;;;;5096117;28;20194;-70
2021/11/09 03:58:03;;;;;;;23.85;11.65;;;;;;;;;;5096214;28;20299;-70
2021/11/09 04:00:34;;;;;;;31.23;13.35;;;;;;;;;;5095928;28;20192;-69
2021/11/09 04:03:04;;;;;;;21.23;11.50;;;;;;;;;;5095818;28;20520;-70
2021/11/09 04:05:35;;;;;;;24.80;12.15;;;;;;;;;;5096057;28;20194;-70
2021/11/09 04:08:06;;;;;;;24.50;11.43;;;;;;;;;;5095449;28;20193;-70
2021/11/09 04:10:41;;;;;;;24.08;12.60;;;;;;;;;;5095633;28;20184;-70
2021/11/09 04:13:25;;;;;;;41.08;12.68;;;;;;;;;;5095111;28;20205;-71
2021/11/09 04:18:45;;;;;;;31.67;13.45;;;;;;;;;;5084219;28;20224;-71
2021/11/09 04:21:23;;;;;;;32.08;13.20;;;;;;;;;;5094712;28;20203;-70
2021/11/09 04:24:17;;;;;;;19.80;11.73;;;;;;;;;;5094490;28;20194;-69
2021/11/09 04:29:45;;;;;;;25.85;11.10;;;;;;;;;;5094405;28;20208;-71
2021/11/09 05:02:47;;;;;;;36.78;11.65;;;;;;;;;;5086292;28;20234;-70
2021/11/09 05:10:55;;;;;;;38.40;13.18;;;;;;;;;;5057141;28;20212;-70
2021/11/09 05:13:23;;;;;;;29.90;13.70;;;;;;;;;;5093579;28;20651;-70
2021/11/09 05:15:50;;;;;;;27.30;13.00;;;;;;;;;;5093835;28;20212;-70
2021/11/09 05:18:19;;;;;;;24.42;11.68;;;;;;;;;;5093645;28;20556;-70
2021/11/09 05:20:47;;;;;;;17.40;10.80;;;;;;;;;;5093937;28;20549;-69
2021/11/09 05:23:14;;;;;;;32.03;11.48;;;;;;;;;;5093865;28;20202;-69
2021/11/09 05:25:41;;;;;;;28.27;12.07;;;;;;;;;;5093410;28;20203;-70
2021/11/09 05:28:09;;;;;;;23.20;11.57;;;;;;;;;;5092543;28;20291;-70
2021/11/09 05:30:37;;;;;;;28.02;12.48;;;;;;;;;;5092820;28;20202;-69
2021/11/09 05:33:05;;;;;;;25.58;12.68;;;;;;;;;;5092261;28;20196;-69
2021/11/09 05:35:33;;;;;;;27.63;13.57;;;;;;;;;;5092658;28;20223;-69
2021/11/09 05:38:03;;;;;;;28.63;11.98;;;;;;;;;;5092267;28;20194;-69
2021/11/09 05:40:32;;;;;;;35.08;14.07;;;;;;;;;;5086775;28;20669;-69
2021/11/09 05:43:00;;;;;;;33.28;12.68;;;;;;;;;;5071886;28;20257;-69
2021/11/09 05:45:28;;;;;;;29.95;13.60;;;;;;;;;;5071876;28;20192;-69
2021/11/09 05:47:55;;;;;;;29.52;13.80;;;;;;;;;;5072813;28;20225;-70
2021/11/09 05:50:23;;;;;;;37.15;13.50;;;;;;;;;;5072889;28;20196;-70
2021/11/09 05:52:51;;;;;;;27.73;12.60;;;;;;;;;;5072319;28;20318;-69
2021/11/09 05:55:19;;;;;;;21.75;11.63;;;;;;;;;;5073050;28;20200;-70
2021/11/09 05:57:46;;;;;;;18.20;11.30;;;;;;;;;;5072863;28;20240;-69
2021/11/09 06:00:15;;;;;;;32.47;13.57;;;;;;;;;;5072783;28;20312;-69
2021/11/09 06:02:42;;;;;;;28.83;12.55;;;;;;;;;;5073297;28;20198;-69
2021/11/09 06:05:10;;;;;;;27.83;13.75;;;;;;;;;;5072950;28;20200;-70
2021/11/09 06:07:37;;;;;;;26.65;14.32;;;;;;;;;;5073315;28;20196;-69
2021/11/09 06:10:07;;;;;;;47.03;14.68;;;;;;;;;;5072671;28;20355;-69
2021/11/09 06:12:34;;;;;;;28.15;12.18;;;;;;;;;;5071216;28;20192;-69
2021/11/09 06:15:02;;;;;;;28.02;12.32;;;;;;;;;;5073083;28;20573;-69
2021/11/09 06:17:29;;;;;;;31.63;13.57;;;;;;;;;;5072695;28;20252;-70
2021/11/09 06:19:56;;;;;;;40.85;14.23;;;;;;;;;;5072088;28;20215;-70
2021/11/09 06:22:23;;;;;;;33.42;12.43;;;;;;;;;;5072193;28;20226;-70
2021/11/09 06:24:50;;;;;;;26.25;12.93;;;;;;;;;;5072435;28;20197;-69
2021/11/09 06:27:19;;;;;;;24.25;12.05;;;;;;;;;;5072078;28;20687;-69
2021/11/09 06:29:46;;;;;;;32.47;15.02;;;;;;;;;;5070951;28;20664;-69
2021/11/09 06:32:15;;;;;;;22.75;11.85;;;;;;;;;;5071726;28;20215;-70
2021/11/09 06:34:42;;;;;;;32.53;13.63;;;;;;;;;;5072359;28;20197;-70
2021/11/09 06:37:11;;;;;;;32.28;12.38;;;;;;;;;;5072625;28;20495;-69
2021/11/09 06:39:39;;;;;;;27.40;13.20;;;;;;;;;;5072522;28;20313;-69
2021/11/09 06:42:06;;;;;;;30.17;13.25;;;;;;;;;;5071000;28;20238;-69
2021/11/09 06:44:35;;;;;;;33.08;13.48;;;;;;;;;;5072716;28;20562;-70
2021/11/09 06:47:02;;;;;;;31.10;12.88;;;;;;;;;;5072521;28;20208;-70
2021/11/09 06:49:29;;;;;;;34.90;13.50;;;;;;;;;;5072649;28;20225;-70
2021/11/09 06:51:57;;;;;;;28.00;12.30;;;;;;;;;;5073006;28;20202;-70
2021/11/09 06:54:24;;;;;;;25.80;13.35;;;;;;;;;;5072541;28;20638;-70
2021/11/09 06:56:51;;;;;;;35.80;13.15;;;;;;;;;;5073283;28;20193;-70
2021/11/09 06:59:21;;;;;;;34.65;14.45;;;;;;;;;;5075317;28;20274;-70
2021/11/09 07:01:50;;;;;;;27.27;14.32;;;;;;;;;;5076121;28;20197;-70
2021/11/09 07:04:17;;;;;;;22.02;13.70;;;;;;;;;;5076402;28;20197;-70
2021/11/09 07:06:45;;;;;;;30.67;13.50;;;;;;;;;;5075837;28;20244;-70
2021/11/09 07:09:13;;;;;;;37.28;16.75;;;;;;;;;;5076366;28;20198;-70
2021/11/09 07:11:40;;;;;;;35.00;15.40;;;;;;;;;;5076078;28;20243;-70
2021/11/09 07:14:08;;;;;;;36.90;14.63;;;;;;;;;;5075976;28;20196;-70
2021/11/09 07:16:36;;;;;;;39.60;14.88;;;;;;;;;;5075691;28;20196;-69
2021/11/09 07:19:07;;;;;;;46.33;15.38;;;;;;;;;;5075801;28;20220;-70
2021/11/09 07:21:34;;;;;;;33.63;14.93;;;;;;;;;;5075849;28;20200;-71
2021/11/09 07:24:01;;;;;;;35.28;15.98;;;;;;;;;;5075818;28;20196;-70
2021/11/09 07:26:29;;;;;;;28.30;14.95;;;;;;;;;;5076345;28;20282;-70
2021/11/09 07:28:57;;;;;;;32.28;12.52;;;;;;;;;;5075919;28;20294;-70
2021/11/09 07:31:25;;;;;;;26.00;12.93;;;;;;;;;;5075350;28;20201;-70
2021/11/09 07:33:52;;;;;;;41.53;16.42;;;;;;;;;;5075526;28;20712;-70
2021/11/09 07:36:21;;;;;;;39.90;15.18;;;;;;;;;;5075419;28;20227;-70
2021/11/09 07:38:48;;;;;;;34.42;14.93;;;;;;;;;;5075619;28;20262;-70
2021/11/09 07:41:16;;;;;;;32.25;15.27;;;;;;;;;;5075315;28;20780;-70
2021/11/09 07:43:43;;;;;;;24.58;13.50;;;;;;;;;;5075740;28;20205;-70
2021/11/09 07:46:10;;;;;;;28.63;12.35;;;;;;;;;;5075297;28;20198;-70
2021/11/09 07:48:38;;;;;;;38.55;14.90;;;;;;;;;;5075515;28;20293;-70
2021/11/09 07:51:05;;;;;;;27.88;15.00;;;;;;;;;;5076166;28;20290;-71
2021/11/09 07:53:36;;;;;;;32.10;14.13;;;;;;;;;;5075992;28;20239;-70
2021/11/09 07:56:16;;;;;;;36.25;15.43;;;;;;;;;;5074996;28;20189;-70
2021/11/09 07:58:51;;;;;;;25.90;13.93;;;;;;;;;;5075666;28;20202;-70
2021/11/09 08:01:22;;;;;;;31.45;13.43;;;;;;;;;;5075121;28;20226;-70
2021/11/09 08:04:02;;;;;;;37.88;14.95;;;;;;;;;;5075022;28;20272;-70
2021/11/09 08:06:32;;;;;;;26.92;14.95;;;;;;;;;;5074965;28;20660;-70
2021/11/09 08:09:10;;;;;;;39.53;16.08;;;;;;;;;;5074977;28;20197;-70
2021/11/09 08:11:41;;;;;;;50.17;14.38;;;;;;;;;;5075232;28;20204;-70
2021/11/09 08:14:08;;;;;;;32.28;15.32;;;;;;;;;;5075307;28;20546;-70
2021/11/09 08:16:36;;;;;;;25.92;14.20;;;;;;;;;;5074883;28;20218;-70
2021/11/09 08:19:03;;;;;;;42.95;16.40;;;;;;;;;;5075027;28;20217;-70
2021/11/09 08:21:32;;;;;;;28.15;13.93;;;;;;;;;;5074624;28;20299;-71
2021/11/09 08:24:01;;;;;;;29.65;13.93;;;;;;;;;;5075155;28;20200;-70
2021/11/09 08:26:28;;;;;;;32.60;14.30;;;;;;;;;;5075145;28;20287;-70
2021/11/09 08:29:01;;;;;;;30.73;15.05;;;;;;;;;;5074815;28;20202;-69
2021/11/09 08:31:29;;;;;;;29.90;13.57;;;;;;;;;;5075146;28;20565;-69
2021/11/09 08:33:56;;;;;;;31.15;14.13;;;;;;;;;;5074442;28;20236;-70
2021/11/09 08:36:27;;;;;;;29.73;14.05;;;;;;;;;;5074014;28;20281;-70
2021/11/09 08:38:55;;;;;;;30.10;14.30;;;;;;;;;;5074872;28;20182;-71
2021/11/09 08:41:28;;;;;;;40.83;14.18;;;;;;;;;;5073241;28;20656;-70
2021/11/09 08:44:01;;;;;;;32.47;14.70;;;;;;;;;;5074856;28;20187;-70
2021/11/09 08:46:30;;;;;;;28.48;14.77;;;;;;;;;;5074176;28;20244;-70
2021/11/09 08:48:58;;;;;;;49.30;13.23;;;;;;;;;;5073812;28;20196;-70
2021/11/09 08:51:26;;;;;;;28.48;14.70;;;;;;;;;;5074125;28;20201;-70
2021/11/09 08:53:57;;;;;;;27.98;11.82;;;;;;;;;;5074161;28;20229;-70
2021/11/09 09:04:26;;;;;;;24.92;13.93;;;;;;;;;;5074325;28;20181;-70
2021/11/09 09:06:55;;;;;;;28.90;13.02;;;;;;;;;;5073779;28;20208;-70
2021/11/09 09:09:22;;;;;;;27.38;13.27;;;;;;;;;;5073395;28;20657;-70
2021/11/09 09:11:52;;;;;;;30.20;13.27;;;;;;;;;;5073756;28;20276;-70
2021/11/09 09:14:21;;;;;;;24.50;13.30;;;;;;;;;;5073467;28;20489;-70
2021/11/09 09:16:48;;;;;;;26.67;13.33;;;;;;;;;;5073294;28;20448;-70
2021/11/09 09:19:16;;;;;;;22.80;11.95;;;;;;;;;;5073583;28;20534;-70
2021/11/09 09:21:46;;;;;;;23.80;12.15;;;;;;;;;;5072743;28;20222;-70
2021/11/09 09:24:24;;;;;;;26.52;12.75;;;;;;;;;;5073535;28;20191;-70
2021/11/09 09:26:57;;;;;;;26.23;12.20;;;;;;;;;;5073949;28;20184;-70
2021/11/09 09:29:36;;;;;;;25.95;12.23;;;;;;;;;;5073188;28;20235;-70
2021/11/09 09:54:29;;;;;;;20.85;12.30;;;;;;;;;;5073051;28;20189;-70
2021/11/09 09:56:57;;;;;;;22.03;11.47;;;;;;;;;;5072678;28;20193;-70
2021/11/09 09:59:27;;;;;;;18.77;12.95;;;;;;;;;;5072623;28;20487;-70
2021/11/09 10:02:07;;;;;;;25.53;10.87;;;;;;;;;;5073404;28;20238;-70
2021/11/09 10:04:36;;;;;;;29.50;12.20;;;;;;;;;;5073085;28;20785;-70
2021/11/09 10:07:09;;;;;;;33.47;11.60;;;;;;;;;;5072976;28;20449;-70
2021/11/09 10:09:40;;;;;;;20.10;11.30;;;;;;;;;;5072886;28;20436;-70
2021/11/09 10:12:21;;;;;;;24.65;11.70;;;;;;;;;;5072639;28;20520;-70
2021/11/09 10:14:51;;;;;;;21.73;10.40;;;;;;;;;;5072450;28;20284;-70
2021/11/09 10:17:19;;;;;;;15.90;9.30;;;;;;;;;;5072583;28;20185;-70
2021/11/09 10:19:47;;;;;;;22.00;9.70;;;;;;;;;;5072738;28;20317;-70
2021/11/09 10:22:23;;;;;;;22.45;10.52;;;;;;;;;;5072527;28;20479;-70
2021/11/09 10:24:52;;;;;;;17.63;9.77;;;;;;;;;;5072461;28;20217;-70
2021/11/09 10:27:20;;;;;;;21.30;11.27;;;;;;;;;;5072797;28;20535;-70
2021/11/09 10:29:47;;;;;;;25.97;10.80;;;;;;;;;;5073042;28;20479;-70
2021/11/09 10:32:17;;;;;;;21.63;9.40;;;;;;;;;;5074436;28;20501;-70
2021/11/09 10:34:45;;;;;;;18.03;9.90;;;;;;;;;;5076448;28;20440;-70
2021/11/09 10:37:18;;;;;;;16.38;10.00;;;;;;;;;;5076499;28;20948;-70
2021/11/09 10:39:46;;;;;;;15.20;8.77;;;;;;;;;;5076163;28;20263;-70
2021/11/09 10:42:14;;;;;;;14.87;10.17;;;;;;;;;;5076055;28;20523;-70
2021/11/09 10:44:51;;;;;;;16.70;8.70;;;;;;;;;;5076400;28;20959;-70
2021/11/09 10:47:21;;;;;;;14.53;8.83;;;;;;;;;;5076038;28;20432;-70
2021/11/09 10:49:49;;;;;;;17.23;8.23;;;;;;;;;;5076328;28;20440;-71
2021/11/09 10:52:18;;;;;;;17.23;8.07;;;;;;;;;;5076273;28;20482;-71
2021/11/09 10:54:46;;;;;;;15.57;7.80;;;;;;;;;;5075870;28;20443;-71
2021/11/09 10:57:19;;;;;;;15.73;7.50;;;;;;;;;;5076137;28;20523;-69
2021/11/09 11:00:05;;;;;;;15.63;7.77;;;;;;;;;;5076252;28;20558;-70
2021/11/09 11:05:19;;;;;;;16.60;9.27;;;;;;;;;;5076228;28;20474;-71
2021/11/09 11:07:51;;;;;;;13.00;8.17;;;;;;;;;;5075742;28;20504;-70
2021/11/09 11:10:26;;;;;;;15.68;8.32;;;;;;;;;;5076124;28;20442;-70
2021/11/09 11:12:53;;;;;;;11.70;7.13;;;;;;;;;;5075883;28;20192;-71
2021/11/09 11:15:21;;;;;;;13.57;7.25;;;;;;;;;;5075997;28;20443;-71
2021/11/09 11:17:49;;;;;;;9.50;7.00;;;;;;;;;;5075600;28;20199;-70
2021/11/09 11:20:17;;;;;;;14.43;8.23;;;;;;;;;;5075544;28;20578;-70
2021/11/09 11:22:44;;;;;;;9.67;7.43;;;;;;;;;;5076375;28;20803;-70
2021/11/09 11:25:13;;;;;;;22.33;7.40;;;;;;;;;;5075824;28;20455;-70
2021/11/09 11:27:40;;;;;;;12.03;6.43;;;;;;;;;;5075605;28;20479;-70
2021/11/09 11:30:08;;;;;;;10.70;6.57;;;;;;;;;;5076023;28;20444;-71
2021/11/09 11:32:35;;;;;;;9.30;7.40;;;;;;;;;;5076584;28;20528;-71
2021/11/09 11:35:04;;;;;;;12.83;6.77;;;;;;;;;;5076135;28;20539;-71
2021/11/09 11:37:31;;;;;;;11.70;6.30;;;;;;;;;;5076079;28;20449;-70
2021/11/09 11:40:02;;;;;;;11.32;6.35;;;;;;;;;;5075857;28;20472;-70
2021/11/09 11:42:38;;;;;;;13.53;6.97;;;;;;;;;;5075716;28;20182;-71
2021/11/09 11:45:05;;;;;;;15.07;6.90;;;;;;;;;;5075475;28;20890;-70
2021/11/09 11:47:33;;;;;;;13.83;6.30;;;;;;;;;;5075365;28;20519;-70
2021/11/09 11:50:01;;;;;;;15.97;6.60;;;;;;;;;;5075015;28;20440;-70
2021/11/09 11:52:31;;;;;;;11.53;6.20;;;;;;;;;;5074985;28;20483;-71
2021/11/09 11:55:10;;;;;;;11.40;6.70;;;;;;;;;;5074938;28;20448;-70
2021/11/09 11:57:45;;;;;;;8.57;5.90;;;;;;;;;;5075251;28;20441;-70
2021/11/09 12:00:33;;;;;;;16.43;6.63;;;;;;;;;;5075639;28;20566;-70
2021/11/09 12:03:01;;;;;;;13.73;6.20;;;;;;;;;;5075428;28;20424;-70
2021/11/09 12:05:40;;;;;;;13.40;6.43;;;;;;;;;;5074605;28;20440;-71
2021/11/09 12:08:09;;;;;;;10.97;6.70;;;;;;;;;;5075124;28;20466;-70
2021/11/09 12:10:41;;;;;;;16.13;6.60;;;;;;;;;;5074606;28;20450;-70
2021/11/09 12:13:10;;;;;;;13.43;4.83;;;;;;;;;;5074544;28;20449;-70
2021/11/09 12:15:43;;;;;;;18.57;5.57;;;;;;;;;;5074738;28;20836;-70
2021/11/09 12:18:25;;;;;;;12.20;4.77;;;;;;;;;;5074751;28;20835;-70
2021/11/09 12:20:52;;;;;;;10.83;5.10;;;;;;;;;;5074403;28;20602;-70
2021/11/09 12:23:21;;;;;;;9.00;4.20;;;;;;;;;;5074306;28;20445;-70
2021/11/09 12:25:50;;;;;;;21.13;5.50;;;;;;;;;;5074393;28;20455;-71
2021/11/09 12:28:17;;;;;;;15.70;5.63;;;;;;;;;;5074862;28;20449;-71
2021/11/09 12:30:49;;;;;;;15.97;5.43;;;;;;;;;;5074195;28;20535;-71
2021/11/09 12:33:17;;;;;;;12.43;5.00;;;;;;;;;;5074925;28;20508;-70
2021/11/09 12:35:45;;;;;;;8.60;5.20;;;;;;;;;;5074441;28;20439;-70
2021/11/09 12:38:14;;;;;;;9.27;5.13;;;;;;;;;;5074513;28;20436;-72
2021/11/09 12:40:48;;;;;;;15.40;5.00;;;;;;;;;;5074052;28;20526;-71
2021/11/09 12:43:17;;;;;;;13.47;4.70;;;;;;;;;;5074363;28;20433;-70
2021/11/09 12:45:45;;;;;;;9.80;4.33;;;;;;;;;;5074191;28;20447;-70
2021/11/09 12:48:14;;;;;;;8.17;4.20;;;;;;;;;;5074108;28;20842;-70
2021/11/09 12:50:47;;;;;;;12.60;5.10;;;;;;;;;;5074095;28;20793;-70
2021/11/09 12:53:16;;;;;;;10.97;5.60;;;;;;;;;;5074610;28;20475;-70
2021/11/09 12:55:44;;;;;;;8.53;5.00;;;;;;;;;;5073688;28;20514;-70
2021/11/09 12:58:17;;;;;;;11.33;4.40;;;;;;;;;;5074290;28;20436;-70
2021/11/09 13:00:49;;;;;;;7.07;4.33;;;;;;;;;;5074406;28;20475;-70
2021/11/09 13:03:29;;;;;;;13.03;4.20;;;;;;;;;;5074329;28;20428;-71
2021/11/09 13:06:04;;;;;;;4.50;2.70;;;;;;;;;;5073933;28;20464;-70
2021/11/09 13:08:42;;;;;;;7.60;3.93;;;;;;;;;;5073898;28;20447;-70
2021/11/09 13:11:24;;;;;;;6.97;3.40;;;;;;;;;;5073846;28;20944;-67
2021/11/09 13:14:00;;;;;;;9.20;4.13;;;;;;;;;;5073255;28;20531;-73
2021/11/09 13:16:28;;;;;;;9.37;4.40;;;;;;;;;;5073191;28;20456;-71
2021/11/09 13:19:02;;;;;;;4.60;3.27;;;;;;;;;;5073424;28;20449;-72
2021/11/09 13:21:29;;;;;;;7.77;3.13;;;;;;;;;;5073585;28;20488;-72
2021/11/09 13:23:57;;;;;;;6.30;3.43;;;;;;;;;;5073876;28;20502;-72
2021/11/09 13:26:24;;;;;;;6.07;3.10;;;;;;;;;;5073354;28;20443;-71
2021/11/09 13:28:51;;;;;;;6.80;3.20;;;;;;;;;;5073343;28;20450;-72
2021/11/09 13:31:19;;;;;;;5.13;3.27;;;;;;;;;;5072223;28;20479;-71
2021/11/09 13:33:47;;;;;;;7.67;3.43;;;;;;;;;;5072233;28;20929;-71
2021/11/09 13:36:18;;;;;;;7.33;3.00;;;;;;;;;;5073104;28;20442;-71
2021/11/09 13:38:45;;;;;;;6.53;3.07;;;;;;;;;;5073062;28;20475;-70
2021/11/09 13:41:15;;;;;;;5.70;2.93;;;;;;;;;;5072727;28;20468;-70
2021/11/09 13:43:45;;;;;;;6.57;4.10;;;;;;;;;;5072786;28;20524;-70
2021/11/09 13:46:14;;;;;;;7.50;3.33;;;;;;;;;;5072444;28;20989;-71
2021/11/09 13:48:43;;;;;;;5.23;2.87;;;;;;;;;;5072888;28;20519;-71
2021/11/09 13:51:11;;;;;;;7.20;3.60;;;;;;;;;;5073213;28;20455;-72
2021/11/09 13:53:40;;;;;;;3.77;2.83;;;;;;;;;;5072533;28;20564;-71
2021/11/09 13:56:08;;;;;;;6.10;3.10;;;;;;;;;;5072808;28;20797;-71
2021/11/09 13:58:36;;;;;;;4.50;3.13;;;;;;;;;;5072337;28;20527;-72
2021/11/09 14:01:04;;;;;;;5.37;3.00;;;;;;;;;;5072318;28;20560;-70
2021/11/09 14:03:40;;;;;;;5.10;3.37;;;;;;;;;;5072484;28;20448;-71
2021/11/09 14:06:51;;;;;;;5.23;3.53;;;;;;;;;;5073166;28;20761;-71
2021/11/09 14:12:30;;;;;;;7.40;3.40;;;;;;;;;;5078627;28;20436;-72
2021/11/09 14:15:13;;;;;;;6.40;3.37;;;;;;;;;;5079317;28;20424;-71
2021/11/09 14:17:40;;;;;;;5.47;3.33;;;;;;;;;;5079324;28;20447;-72
2021/11/09 14:20:08;;;;;;;21.27;4.00;;;;;;;;;;5078914;28;20440;-71
2021/11/09 14:22:37;;;;;;;6.40;2.73;;;;;;;;;;5077925;28;20788;-71
2021/11/09 14:25:07;;;;;;;7.40;3.90;;;;;;;;;;5078033;28;20436;-71
2021/11/09 14:27:38;;;;;;;13.47;3.67;;;;;;;;;;5079215;28;20432;-71
2021/11/09 14:30:07;;;;;;;8.70;3.17;;;;;;;;;;5079086;28;20429;-72
2021/11/09 14:32:36;;;;;;;7.13;3.40;;;;;;;;;;5078156;28;20448;-72
2021/11/09 14:35:07;;;;;;;8.63;2.90;;;;;;;;;;5079403;28;20436;-72
2021/11/09 14:37:42;;;;;;;9.87;3.10;;;;;;;;;;5079030;28;20424;-71
2021/11/09 14:40:12;;;;;;;26.27;13.53;;;;;;;;;;5078567;28;20432;-71
2021/11/09 14:42:47;;;;;;;10.70;3.90;;;;;;;;;;5079208;28;20484;-71
2021/11/09 14:45:20;;;;;;;16.00;7.67;;;;;;;;;;5079458;28;20523;-70
2021/11/09 14:47:49;;;;;;;8.93;3.40;;;;;;;;;;5079200;28;20436;-70
2021/11/09 14:50:25;;;;;;;11.83;3.40;;;;;;;;;;5078788;28;20452;-71
2021/11/09 14:52:52;;;;;;;8.57;4.10;;;;;;;;;;5078386;28;20467;-70
2021/11/09 14:55:28;;;;;;;6.57;3.70;;;;;;;;;;5079457;28;20490;-71
2021/11/09 14:57:56;;;;;;;10.50;4.27;;;;;;;;;;5079437;28;20455;-71
2021/11/09 15:00:24;;;;;;;8.50;4.17;;;;;;;;;;5078965;28;20501;-70
2021/11/09 15:03:09;;;;;;;8.53;3.60;;;;;;;;;;5076972;28;20567;-71
2021/11/09 15:05:36;;;;;;;5.80;3.73;;;;;;;;;;5079034;28;20439;-72
2021/11/09 15:08:14;;;;;;;3.63;2.73;;;;;;;;;;5078652;28;20897;-71
2021/11/09 15:13:52;;;;;;;7.73;4.20;;;;;;;;;;5078405;28;20429;-72
2021/11/09 15:27:28;;;;;;;5.70;3.40;;;;;;;;;;5075084;28;20404;-70
2021/11/09 15:29:57;;;;;;;7.90;3.73;;;;;;;;;;5074057;28;20428;-70
2021/11/09 15:32:33;;;;;;;8.17;3.43;;;;;;;;;;5074709;28;20448;-70
2021/11/09 15:35:18;;;;;;;6.40;3.57;;;;;;;;;;5074175;28;20619;-71
2021/11/09 15:37:49;;;;;;;11.30;4.40;;;;;;;;;;5075210;28;20431;-71
2021/11/09 15:40:20;;;;;;;8.20;5.40;;;;;;;;;;5075670;28;20425;-71
2021/11/09 15:42:49;;;;;;;5.93;3.53;;;;;;;;;;5075118;28;20507;-71
2021/11/09 15:45:16;;;;;;;12.93;4.73;;;;;;;;;;5075077;28;20519;-72
2021/11/09 15:47:43;;;;;;;6.73;3.63;;;;;;;;;;5075434;28;20535;-71
2021/11/09 15:50:11;;;;;;;9.43;4.07;;;;;;;;;;5075029;28;20443;-72
2021/11/09 15:52:39;;;;;;;7.53;4.00;;;;;;;;;;5074759;28;20495;-71
2021/11/09 15:55:08;;;;;;;12.27;6.30;;;;;;;;;;5074629;28;20859;-72
2021/11/09 15:57:36;;;;;;;10.00;6.30;;;;;;;;;;5075221;28;20451;-73
2021/11/09 16:00:05;;;;;;;17.13;8.90;;;;;;;;;;5074903;28;20445;-72
2021/11/09 16:02:33;;;;;;;14.50;9.00;;;;;;;;;;5075370;28;20479;-72
2021/11/09 16:05:00;;;;;;;15.15;7.88;;;;;;;;;;5073919;28;20453;-72
2021/11/09 16:07:27;;;;;;;16.40;8.87;;;;;;;;;;5074990;28;20281;-72
2021/11/09 16:09:56;;;;;;;14.30;5.97;;;;;;;;;;5074601;28;20444;-71
2021/11/09 16:12:24;;;;;;;11.63;5.63;;;;;;;;;;5075205;28;20441;-71
2021/11/09 16:14:58;;;;;;;9.77;5.50;;;;;;;;;;5074861;28;20489;-71
2021/11/09 16:17:29;;;;;;;19.90;6.70;;;;;;;;;;5074674;28;20516;-71
2021/11/09 16:19:58;;;;;;;11.80;5.63;;;;;;;;;;5075256;28;20431;-71
2021/11/09 16:22:27;;;;;;;8.80;5.97;;;;;;;;;;5074333;28;20501;-71
2021/11/09 16:24:55;;;;;;;9.70;5.67;;;;;;;;;;5074353;28;20506;-72
2021/11/09 16:27:27;;;;;;;12.87;6.00;;;;;;;;;;5074386;28;20983;-71
2021/11/09 16:30:11;;;;;;;8.87;6.00;;;;;;;;;;5074828;28;20446;-71
2021/11/09 16:32:41;;;;;;;10.38;6.03;;;;;;;;;;5074769;28;20431;-71
2021/11/09 16:35:12;;;;;;;11.30;6.83;;;;;;;;;;5074490;28;20201;-71